Time;durP1;ratioP1;P1;durP2;ratioP2;P2;SDS_P1;SDS_P2;PMS_P1;PMS_P2;Temp;Humidity;BMP_temperature;BMP_pressure;BME280_temperature;BME280_humidity;BME280_pressure;Samples;Min_cycle;Max_cycle;Signal;HPM_P1;HPM_P2
2022/07/01 00:00:11;;;;;;;5.38;4.97;;;;;;;24.70;56.87;95020.97;4996317;28;20289;-70
2022/07/01 00:02:39;;;;;;;7.30;4.65;;;;;;;24.72;57.29;95025.09;4995825;28;20215;-70
2022/07/01 00:05:06;;;;;;;6.60;4.15;;;;;;;24.65;57.69;95017.97;4998062;28;21054;-70
2022/07/01 00:07:33;;;;;;;4.38;3.92;;;;;;;24.58;57.89;95019.47;4997768;28;20212;-70
2022/07/01 00:10:00;;;;;;;5.90;5.40;;;;;;;24.77;57.64;95009.06;4996696;28;20220;-70
2022/07/01 00:12:27;;;;;;;8.63;5.18;;;;;;;24.82;57.12;95013.84;4997120;28;20203;-70
2022/07/01 00:14:54;;;;;;;10.13;5.20;;;;;;;24.77;57.71;95025.47;4996239;28;20697;-69
2022/07/01 00:17:20;;;;;;;7.88;5.82;;;;;;;24.72;58.15;95030.28;4996855;28;20749;-69
2022/07/01 00:19:50;;;;;;;5.28;4.90;;;;;;;24.75;58.15;95034.34;4996430;28;20682;-70
2022/07/01 00:22:17;;;;;;;5.40;5.00;;;;;;;24.97;57.70;95030.69;4996036;28;20339;-69
2022/07/01 00:24:45;;;;;;;10.40;6.05;;;;;;;25.07;57.84;95026.28;4996834;28;20203;-69
2022/07/01 00:27:12;;;;;;;5.43;4.90;;;;;;;25.01;57.46;95034.63;4995257;28;20239;-69
2022/07/01 00:29:39;;;;;;;7.25;5.90;;;;;;;25.00;57.56;95033.81;4998075;28;20320;-70
2022/07/01 00:32:06;;;;;;;7.13;5.30;;;;;;;25.01;57.84;95032.03;4994862;28;20933;-68
2022/07/01 00:34:33;;;;;;;6.15;5.40;;;;;;;24.98;58.04;95038.38;4995765;28;20212;-70
2022/07/01 00:37:01;;;;;;;7.22;4.57;;;;;;;25.01;58.08;95037.22;4995546;28;20732;-71
2022/07/01 00:39:31;;;;;;;5.70;5.20;;;;;;;24.91;58.26;95034.63;4994913;28;20196;-71
2022/07/01 00:42:00;;;;;;;6.38;5.78;;;;;;;24.76;58.78;95025.59;4997322;28;20613;-72
2022/07/01 00:44:27;;;;;;;6.05;5.63;;;;;;;24.74;58.92;95032.75;4998137;28;20297;-71
2022/07/01 00:46:55;;;;;;;5.85;5.35;;;;;;;24.42;59.72;95039.03;4996452;28;20704;-70
2022/07/01 00:49:22;;;;;;;7.90;5.80;;;;;;;24.39;60.08;95047.09;4996114;28;20235;-71
2022/07/01 00:51:49;;;;;;;5.75;5.25;;;;;;;24.58;59.79;95043.69;4997043;28;20211;-71
2022/07/01 00:54:17;;;;;;;8.05;5.40;;;;;;;24.72;58.99;95032.06;4996756;28;20211;-71
2022/07/01 00:56:44;;;;;;;6.97;5.53;;;;;;;24.66;59.17;95032.59;4994113;28;20862;-71
2022/07/01 00:59:10;;;;;;;5.20;4.78;;;;;;;24.70;58.88;95033.97;4996455;28;21043;-70
2022/07/01 01:01:37;;;;;;;5.60;5.30;;;;;;;24.63;59.60;95038.06;4995133;28;20200;-71
2022/07/01 01:04:04;;;;;;;5.95;5.30;;;;;;;24.76;59.09;95033.41;4996464;28;20207;-69
2022/07/01 01:06:31;;;;;;;5.53;5.03;;;;;;;24.83;58.81;95037.09;4996290;28;20203;-71
2022/07/01 01:08:58;;;;;;;7.10;5.15;;;;;;;24.82;58.31;95039.84;4995225;28;20219;-71
2022/07/01 01:11:27;;;;;;;11.88;5.45;;;;;;;24.70;59.06;95034.81;4998055;28;20226;-71
2022/07/01 01:13:54;;;;;;;7.70;5.80;;;;;;;24.65;59.28;95038.75;4997895;28;20741;-70
2022/07/01 01:16:22;;;;;;;5.88;5.30;;;;;;;24.67;59.21;95036.84;4996827;28;20570;-70
2022/07/01 01:18:49;;;;;;;7.70;5.22;;;;;;;24.64;59.43;95037.94;4995441;28;20369;-70
2022/07/01 01:21:18;;;;;;;5.93;5.47;;;;;;;24.76;59.27;95038.59;4996378;28;20247;-70
2022/07/01 01:23:45;;;;;;;6.30;5.78;;;;;;;24.41;60.38;95034.78;4995269;28;20218;-71
2022/07/01 01:26:20;;;;;;;5.78;5.38;;;;;;;24.30;60.15;95032.31;4996827;28;20318;-72
2022/07/01 01:28:48;;;;;;;5.57;4.85;;;;;;;24.18;60.45;95025.59;4995877;28;20255;-71
2022/07/01 01:31:15;;;;;;;5.65;5.22;;;;;;;23.89;61.85;95035.91;4995121;28;20354;-71
2022/07/01 01:33:42;;;;;;;6.00;5.20;;;;;;;23.88;61.73;95047.25;4995224;28;21868;-71
2022/07/01 01:36:09;;;;;;;6.70;5.18;;;;;;;24.15;60.50;95051.81;4995532;28;20269;-71
2022/07/01 01:38:38;;;;;;;6.38;5.88;;;;;;;24.16;60.59;95050.88;4992677;28;20874;-72
2022/07/01 01:41:05;;;;;;;5.80;5.07;;;;;;;24.21;60.82;95042.66;4997813;28;22095;-70
2022/07/01 01:43:34;;;;;;;7.22;4.88;;;;;;;24.36;60.11;95046.53;4997039;28;20203;-71
2022/07/01 01:46:02;;;;;;;5.18;4.88;;;;;;;24.44;59.81;95049.28;5000836;28;20214;-71
2022/07/01 01:48:30;;;;;;;6.53;5.15;;;;;;;24.30;60.26;95054.88;5000691;28;20672;-71
2022/07/01 01:50:57;;;;;;;6.93;5.50;;;;;;;24.20;60.52;95052.25;5002179;28;22077;-71
2022/07/01 01:53:24;;;;;;;7.10;4.88;;;;;;;24.31;59.94;95044.34;4998644;28;21225;-70
2022/07/01 01:55:53;;;;;;;6.05;5.32;;;;;;;24.33;59.95;95042.44;4996570;28;20282;-71
2022/07/01 01:58:19;;;;;;;6.03;5.53;;;;;;;24.36;60.12;95052.56;4999743;28;22207;-71
2022/07/01 02:00:46;;;;;;;9.07;6.38;;;;;;;24.46;59.43;95054.34;4998787;28;20257;-71
2022/07/01 02:03:13;;;;;;;9.32;5.50;;;;;;;23.95;61.70;95052.72;5001656;28;20211;-70
2022/07/01 02:05:40;;;;;;;6.88;5.25;;;;;;;23.36;63.88;95048.22;4999385;28;20247;-71
2022/07/01 02:08:07;;;;;;;5.85;5.25;;;;;;;23.21;64.06;95057.31;5000101;28;20211;-71
2022/07/01 02:10:33;;;;;;;5.90;5.45;;;;;;;23.29;63.96;95060.06;5001902;28;20223;-71
2022/07/01 02:13:02;;;;;;;5.88;5.32;;;;;;;23.11;63.97;95052.06;4996943;28;20661;-71
2022/07/01 02:15:28;;;;;;;5.88;5.30;;;;;;;23.20;63.84;95063.44;5000441;28;20620;-71
2022/07/01 02:17:56;;;;;;;7.85;5.70;;;;;;;23.29;63.56;95070.44;4998587;28;20212;-70
2022/07/01 02:20:23;;;;;;;10.48;4.95;;;;;;;23.33;63.72;95067.47;5000050;28;20261;-70
2022/07/01 02:22:51;;;;;;;5.95;4.63;;;;;;;23.35;63.53;95064.75;4998751;28;20211;-71
2022/07/01 02:25:18;;;;;;;10.00;5.90;;;;;;;23.55;62.88;95060.50;4998878;28;20203;-70
2022/07/01 02:27:45;;;;;;;9.38;5.57;;;;;;;23.61;62.28;95076.38;4998284;28;20597;-70
2022/07/01 02:30:14;;;;;;;6.30;4.68;;;;;;;23.75;61.99;95067.44;4998479;28;20227;-70
2022/07/01 02:32:41;;;;;;;8.10;5.55;;;;;;;23.82;61.75;95075.47;4998263;28;20278;-70
2022/07/01 02:35:08;;;;;;;9.00;5.65;;;;;;;23.89;61.16;95077.44;4999646;28;20203;-70
2022/07/01 02:37:35;;;;;;;5.72;5.32;;;;;;;24.02;61.01;95085.78;4997603;28;21071;-71
2022/07/01 02:40:02;;;;;;;7.93;5.30;;;;;;;23.83;61.24;95080.53;4998181;28;20262;-69
2022/07/01 02:42:35;;;;;;;4.90;4.20;;;;;;;24.01;60.76;95078.13;4999026;28;20203;-70
2022/07/01 02:45:03;;;;;;;6.15;5.32;;;;;;;23.70;61.47;95085.16;4999427;28;20208;-70
2022/07/01 02:47:35;;;;;;;4.95;4.65;;;;;;;23.57;61.91;95082.75;4997282;28;20208;-71
2022/07/01 02:50:02;;;;;;;5.32;4.82;;;;;;;23.86;61.06;95095.03;4999049;28;20744;-70
2022/07/01 02:52:29;;;;;;;6.93;4.80;;;;;;;23.21;62.98;95098.78;4998504;28;20657;-70
2022/07/01 02:54:56;;;;;;;5.68;5.18;;;;;;;23.37;62.54;95094.78;4997713;28;20203;-70
2022/07/01 02:57:23;;;;;;;6.03;5.53;;;;;;;22.95;63.57;95098.34;4997189;28;20235;-70
2022/07/01 02:59:50;;;;;;;5.78;5.30;;;;;;;22.48;65.26;95094.38;4998366;28;21056;-69
2022/07/01 03:02:17;;;;;;;12.00;5.53;;;;;;;22.22;66.48;95099.03;5000963;28;20615;-70
2022/07/01 03:04:46;;;;;;;6.63;5.05;;;;;;;22.34;66.23;95104.03;4999049;28;20234;-69
2022/07/01 03:07:13;;;;;;;5.22;4.82;;;;;;;22.48;66.04;95099.56;4998875;28;20681;-70
2022/07/01 03:09:40;;;;;;;6.00;5.45;;;;;;;22.54;65.50;95099.88;4997369;28;20222;-70
2022/07/01 03:14:48;;;;;;;6.32;5.07;;;;;;;23.00;63.77;95117.75;4998573;28;20301;-70
2022/07/01 03:17:15;;;;;;;5.60;5.10;;;;;;;23.14;63.37;95115.78;4998474;28;20208;-70
2022/07/01 03:19:42;;;;;;;8.52;5.18;;;;;;;23.00;64.03;95112.56;4999036;28;20199;-71
2022/07/01 03:22:10;;;;;;;7.38;5.68;;;;;;;22.73;64.59;95112.19;5009296;23;20243;-70
2022/07/01 03:24:37;;;;;;;5.57;5.15;;;;;;;22.33;65.91;95112.75;4976771;28;20213;-70
2022/07/01 03:27:04;;;;;;;9.60;5.03;;;;;;;22.54;65.05;95110.22;4978000;28;20758;-69
2022/07/01 03:29:31;;;;;;;12.77;5.38;;;;;;;22.64;65.26;95120.69;4975949;28;20224;-70
2022/07/01 03:31:58;;;;;;;12.98;5.47;;;;;;;22.67;65.19;95128.22;4976500;28;20685;-69
2022/07/01 03:34:25;;;;;;;7.82;5.30;;;;;;;23.92;61.49;95123.91;4976418;28;20275;-69
2022/07/01 03:36:51;;;;;;;9.00;5.45;;;;;;;25.50;57.40;95121.19;4978141;28;20212;-70
2022/07/01 03:39:19;;;;;;;4.88;4.40;;;;;;;27.06;52.90;95114.13;4976132;28;20241;-70
2022/07/01 03:41:46;;;;;;;10.13;4.30;;;;;;;28.43;48.85;95115.13;4976256;28;20208;-70
2022/07/01 03:44:13;;;;;;;7.35;5.18;;;;;;;28.41;48.11;95106.63;4977341;28;20196;-70
2022/07/01 03:46:40;;;;;;;6.78;4.88;;;;;;;29.21;46.69;95109.53;4976871;28;20212;-70
2022/07/01 03:49:08;;;;;;;5.75;5.25;;;;;;;29.25;46.35;95110.84;4975216;28;20216;-71
2022/07/01 03:51:35;;;;;;;9.40;4.95;;;;;;;29.97;44.72;95111.72;4976273;28;20302;-70
2022/07/01 03:56:47;;;;;;;8.27;4.97;;;;;;;31.43;41.69;95116.16;4974962;28;20215;-70
2022/07/01 03:59:14;;;;;;;7.25;5.88;;;;;;;32.20;40.23;95118.53;4974401;28;20214;-70
2022/07/01 04:01:40;;;;;;;5.95;5.35;;;;;;;32.43;39.68;95114.81;4974904;28;20204;-70
2022/07/01 04:04:07;;;;;;;11.25;4.93;;;;;;;33.40;37.33;95103.91;4976080;28;20196;-71
2022/07/01 04:06:34;;;;;;;7.78;5.45;;;;;;;33.50;37.61;95101.72;4975388;28;20216;-70
2022/07/01 04:09:01;;;;;;;10.70;5.60;;;;;;;34.14;36.03;95106.84;4974759;28;20890;-71
2022/07/01 04:11:28;;;;;;;10.45;5.70;;;;;;;34.59;35.22;95116.00;4975348;28;20798;-70
2022/07/01 04:13:57;;;;;;;8.40;7.60;;;;;;;34.37;35.83;95115.31;4977034;28;20215;-69
2022/07/01 04:16:25;;;;;;;20.70;12.98;;;;;;;33.74;36.02;95119.75;4975977;28;21141;-70
2022/07/01 04:18:53;;;;;;;14.60;9.50;;;;;;;32.84;37.85;95116.94;4975145;28;20261;-69
2022/07/01 04:24:04;;;;;;;7.93;5.18;;;;;;;30.98;41.63;95138.81;4975419;28;21981;-69
2022/07/01 04:26:31;;;;;;;4.75;4.43;;;;;;;30.35;42.93;95121.44;4975874;28;20204;-70
2022/07/01 04:28:59;;;;;;;9.00;8.30;;;;;;;29.84;44.20;95127.16;4975345;28;20213;-70
2022/07/01 04:31:26;;;;;;;15.00;11.98;;;;;;;29.60;44.73;95118.38;4976659;28;20228;-69
2022/07/01 04:33:53;;;;;;;9.93;8.55;;;;;;;29.48;45.23;95122.31;4974795;28;20204;-70
2022/07/01 04:36:19;;;;;;;7.68;6.95;;;;;;;29.51;45.20;95127.22;4976061;28;20211;-70
2022/07/01 04:38:46;;;;;;;9.20;8.40;;;;;;;29.67;44.44;95121.97;4977179;28;20205;-70
2022/07/01 04:43:57;;;;;;;6.43;5.47;;;;;;;30.55;42.63;95127.06;4926520;28;20578;-70
2022/07/01 04:46:25;;;;;;;7.15;4.80;;;;;;;31.02;41.67;95119.09;4975026;28;20216;-70
2022/07/01 04:48:52;;;;;;;27.73;20.13;;;;;;;31.26;41.24;95125.19;4975183;28;20208;-71
2022/07/01 04:51:19;;;;;;;11.02;9.95;;;;;;;31.99;39.76;95127.16;4976206;28;20645;-70
2022/07/01 04:53:46;;;;;;;12.23;8.07;;;;;;;32.23;38.93;95137.41;4973526;28;20208;-70
2022/07/01 04:56:12;;;;;;;10.55;7.40;;;;;;;32.72;38.30;95128.91;4974672;28;20754;-69
2022/07/01 04:58:39;;;;;;;5.57;5.00;;;;;;;33.89;36.56;95122.31;4976442;28;20697;-70
2022/07/01 05:01:06;;;;;;;21.40;13.30;;;;;;;34.70;35.05;95123.31;4974389;28;20203;-70
2022/07/01 05:03:35;;;;;;;10.85;9.13;;;;;;;34.20;35.62;95119.22;4975000;28;20203;-69
2022/07/01 05:06:01;;;;;;;7.80;7.10;;;;;;;33.60;36.57;95119.84;4974749;28;20232;-71
2022/07/01 05:08:29;;;;;;;7.40;5.95;;;;;;;33.00;37.51;95121.94;4974996;28;20274;-71
2022/07/01 05:10:56;;;;;;;10.57;5.13;;;;;;;32.38;38.68;95119.00;4974714;28;20319;-70
2022/07/01 05:13:23;;;;;;;12.82;5.22;;;;;;;31.76;39.89;95125.41;4974399;28;20272;-70
2022/07/01 05:15:50;;;;;;;7.05;5.47;;;;;;;31.36;40.78;95128.41;4975481;28;20203;-70
2022/07/01 05:23:46;;;;;;;8.23;5.72;;;;;;;34.02;36.57;95126.84;4973827;28;20261;-70
2022/07/01 05:26:17;;;;;;;5.70;5.22;;;;;;;36.00;32.51;95130.00;4975513;28;20204;-70
2022/07/01 05:28:44;;;;;;;7.53;5.60;;;;;;;37.86;30.23;95118.25;4975535;28;20215;-69
2022/07/01 05:31:11;;;;;;;8.23;5.80;;;;;;;39.03;28.37;95124.28;4973783;28;20228;-70
2022/07/01 05:33:38;;;;;;;6.25;5.22;;;;;;;39.97;27.42;95122.59;4973815;28;20208;-70
2022/07/01 05:36:06;;;;;;;10.88;5.80;;;;;;;40.52;26.40;95127.53;4974884;28;20203;-71
2022/07/01 05:38:34;;;;;;;5.93;5.32;;;;;;;40.97;26.05;95124.97;4974567;28;20208;-69
2022/07/01 05:41:00;;;;;;;6.18;5.10;;;;;;;40.61;26.14;95126.09;4974689;28;20200;-69
2022/07/01 05:43:27;;;;;;;6.45;5.43;;;;;;;40.57;26.46;95124.97;4974129;28;20204;-70
2022/07/01 05:45:54;;;;;;;11.55;5.57;;;;;;;41.00;25.47;95119.97;4976405;28;20223;-69
2022/07/01 05:48:21;;;;;;;5.70;5.20;;;;;;;40.80;26.03;95119.59;4975697;28;20210;-70
2022/07/01 05:50:48;;;;;;;11.35;5.70;;;;;;;40.29;26.48;95123.84;4974500;28;20235;-70
2022/07/01 05:53:16;;;;;;;7.22;5.28;;;;;;;40.59;26.32;95126.34;4976256;28;20956;-71
2022/07/01 05:55:43;;;;;;;6.88;5.03;;;;;;;40.61;25.92;95129.56;4975487;28;20204;-70
2022/07/01 05:58:11;;;;;;;8.98;5.15;;;;;;;40.51;26.36;95128.56;4972274;28;20289;-68
2022/07/01 06:00:41;;;;;;;8.02;5.15;;;;;;;39.74;26.96;95120.72;4972789;28;20645;-70
2022/07/01 06:03:08;;;;;;;6.03;5.47;;;;;;;39.65;27.19;95122.91;4972672;28;20327;-70
2022/07/01 06:05:34;;;;;;;7.45;5.70;;;;;;;39.47;27.45;95125.69;4974009;28;21035;-70
2022/07/01 06:08:01;;;;;;;8.13;5.38;;;;;;;39.50;27.57;95119.91;4973746;28;20200;-69
2022/07/01 06:10:29;;;;;;;7.43;5.32;;;;;;;38.84;28.17;95126.16;4973073;28;20673;-70
2022/07/01 06:12:57;;;;;;;8.32;5.05;;;;;;;38.30;28.91;95124.34;4975054;28;20235;-70
2022/07/01 06:15:24;;;;;;;10.02;6.18;;;;;;;38.42;29.12;95117.25;4973829;28;20216;-70
2022/07/01 06:17:51;;;;;;;8.75;5.57;;;;;;;37.85;30.31;95126.41;4975468;28;20208;-71
2022/07/01 06:20:19;;;;;;;9.38;5.30;;;;;;;37.53;30.73;95123.81;4972248;28;20232;-70
2022/07/01 06:22:46;;;;;;;13.25;7.63;;;;;;;37.65;30.03;95127.38;4974708;28;20801;-70
2022/07/01 06:25:12;;;;;;;7.65;6.18;;;;;;;37.17;31.19;95134.22;4973660;28;20208;-70
2022/07/01 06:27:42;;;;;;;14.25;6.95;;;;;;;36.69;31.50;95142.63;4974026;28;20666;-70
2022/07/01 06:30:09;;;;;;;8.48;5.72;;;;;;;36.68;31.59;95135.69;4976875;28;20284;-70
2022/07/01 06:32:37;;;;;;;10.20;5.68;;;;;;;36.05;32.47;95130.19;4975396;28;20215;-69
2022/07/01 06:35:04;;;;;;;11.75;5.70;;;;;;;35.88;32.73;95129.00;4977711;28;20297;-69
2022/07/01 06:37:33;;;;;;;7.80;5.80;;;;;;;35.46;33.90;95131.03;4977223;28;20204;-70
2022/07/01 06:40:01;;;;;;;5.18;4.68;;;;;;;35.14;34.61;95132.63;4975987;28;20294;-69
2022/07/01 06:42:27;;;;;;;7.88;5.43;;;;;;;35.30;33.99;95128.78;4977410;28;20270;-69
2022/07/01 06:44:55;;;;;;;6.18;4.75;;;;;;;34.94;35.07;95127.28;4976991;28;20204;-69
2022/07/01 06:47:22;;;;;;;7.10;5.47;;;;;;;34.64;34.75;95121.50;4977007;28;20200;-69
2022/07/01 06:49:49;;;;;;;7.00;5.25;;;;;;;34.31;35.93;95126.63;4977518;28;20214;-69
2022/07/01 06:52:16;;;;;;;9.30;5.47;;;;;;;34.17;36.96;95130.16;4976138;28;20228;-68
2022/07/01 06:54:43;;;;;;;6.07;5.50;;;;;;;34.10;37.48;95126.69;4977315;28;20212;-69
2022/07/01 06:57:10;;;;;;;9.60;4.80;;;;;;;33.84;37.09;95123.91;4977087;28;20211;-70
2022/07/01 06:59:37;;;;;;;10.70;5.70;;;;;;;33.44;38.37;95118.28;4977355;28;20208;-69
2022/07/01 07:02:07;;;;;;;7.00;4.72;;;;;;;33.32;38.80;95125.09;4976225;28;20795;-69
2022/07/01 07:04:34;;;;;;;6.85;5.35;;;;;;;33.26;38.29;95120.56;4975285;28;20319;-69
2022/07/01 07:07:01;;;;;;;16.10;5.10;;;;;;;33.20;38.50;95126.56;4976945;28;20208;-69
2022/07/01 07:09:28;;;;;;;9.77;5.32;;;;;;;33.15;38.98;95126.34;4976791;28;20259;-69
2022/07/01 07:11:54;;;;;;;7.55;5.40;;;;;;;32.94;38.93;95132.41;4976382;28;20651;-70
2022/07/01 07:14:21;;;;;;;9.45;5.15;;;;;;;32.83;39.86;95132.91;4976742;28;20622;-69
2022/07/01 07:16:50;;;;;;;17.15;5.45;;;;;;;32.73;40.23;95141.06;4976947;28;20207;-69
2022/07/01 07:19:19;;;;;;;9.77;5.50;;;;;;;32.55;39.69;95138.03;4975948;28;20210;-69
2022/07/01 07:21:46;;;;;;;6.63;5.30;;;;;;;32.54;39.49;95131.94;4974769;28;20251;-69
2022/07/01 07:24:12;;;;;;;11.05;6.65;;;;;;;32.66;39.34;95134.91;4977825;28;20295;-69
2022/07/01 07:26:39;;;;;;;9.25;6.32;;;;;;;32.39;40.05;95139.06;4977138;28;20205;-68
2022/07/01 07:29:06;;;;;;;9.18;5.43;;;;;;;32.42;39.50;95139.47;4977174;28;20219;-69
2022/07/01 07:31:33;;;;;;;12.38;5.20;;;;;;;32.53;39.11;95134.75;4974802;28;20869;-70
2022/07/01 07:33:59;;;;;;;7.40;5.63;;;;;;;32.45;39.45;95130.41;4975094;28;20303;-69
2022/07/01 07:36:28;;;;;;;13.27;5.53;;;;;;;32.27;39.89;95128.16;4975586;28;20207;-69
2022/07/01 07:38:55;;;;;;;13.10;7.22;;;;;;;32.25;39.40;95122.28;4978280;28;20208;-69
2022/07/01 07:41:21;;;;;;;7.00;6.32;;;;;;;32.16;39.76;95128.63;4974221;28;20250;-71
2022/07/01 07:43:48;;;;;;;6.75;5.70;;;;;;;32.07;39.89;95129.69;4976339;28;20215;-69
2022/07/01 07:46:15;;;;;;;7.63;4.90;;;;;;;32.01;39.55;95119.91;4975824;28;20250;-70
2022/07/01 07:48:43;;;;;;;5.80;5.30;;;;;;;31.85;39.95;95125.34;4975166;28;20212;-71
2022/07/01 07:51:09;;;;;;;7.63;5.05;;;;;;;31.63;40.79;95117.31;4976680;28;20239;-68
2022/07/01 07:53:38;;;;;;;7.18;4.80;;;;;;;31.72;40.29;95116.25;4979253;28;20208;-70
2022/07/01 07:56:05;;;;;;;7.15;4.97;;;;;;;31.83;39.48;95122.88;4976543;28;20676;-69
2022/07/01 07:58:32;;;;;;;8.90;4.97;;;;;;;31.75;39.28;95122.97;4977194;28;20208;-69
2022/07/01 08:00:58;;;;;;;6.82;4.63;;;;;;;31.82;40.10;95120.44;4977134;28;20207;-69
2022/07/01 08:03:25;;;;;;;7.30;6.07;;;;;;;31.94;40.73;95119.78;4975171;28;20638;-69
2022/07/01 08:05:52;;;;;;;5.82;5.32;;;;;;;31.93;40.39;95118.16;4974889;28;20926;-68
2022/07/01 08:08:19;;;;;;;10.27;6.38;;;;;;;31.93;40.12;95122.59;4973579;28;20215;-69
2022/07/01 08:10:47;;;;;;;9.02;7.15;;;;;;;31.97;39.65;95113.38;4974685;28;20282;-71
2022/07/01 08:13:14;;;;;;;8.15;7.18;;;;;;;32.04;40.02;95111.66;4977874;28;20208;-71
2022/07/01 08:15:41;;;;;;;8.95;6.50;;;;;;;32.05;39.54;95115.91;4975680;28;20717;-70
2022/07/01 08:18:08;;;;;;;9.70;6.15;;;;;;;31.93;39.77;95109.47;4974093;28;20211;-71
2022/07/01 08:20:35;;;;;;;8.63;5.53;;;;;;;31.89;39.99;95106.41;4976399;28;20208;-71
2022/07/01 08:23:02;;;;;;;5.93;5.13;;;;;;;31.91;40.07;95100.97;4973111;28;20212;-70
2022/07/01 08:25:29;;;;;;;5.97;5.25;;;;;;;31.94;39.93;95103.22;4975950;28;20227;-71
2022/07/01 08:27:57;;;;;;;6.60;4.97;;;;;;;31.96;40.35;95096.78;4975039;28;20200;-68
2022/07/01 08:30:24;;;;;;;7.63;5.38;;;;;;;32.05;39.63;95094.88;4974390;28;20215;-69
2022/07/01 08:32:50;;;;;;;7.82;4.45;;;;;;;32.07;39.40;95100.78;4974821;28;20313;-68
2022/07/01 08:35:17;;;;;;;8.52;5.43;;;;;;;32.07;40.41;95101.59;4976611;28;20221;-69
2022/07/01 08:37:44;;;;;;;8.70;5.20;;;;;;;32.04;40.08;95098.50;4975693;28;20259;-69
2022/07/01 08:40:11;;;;;;;5.45;5.05;;;;;;;32.12;40.71;95098.41;4975968;28;20200;-68
2022/07/01 08:42:38;;;;;;;7.28;5.10;;;;;;;32.14;41.49;95099.06;4974291;28;20769;-69
2022/07/01 08:45:07;;;;;;;6.47;5.22;;;;;;;31.82;41.06;95099.41;4974210;28;20211;-69
2022/07/01 08:47:34;;;;;;;13.15;6.13;;;;;;;31.81;40.93;95097.78;4975186;28;20318;-69
2022/07/01 08:50:02;;;;;;;8.38;4.93;;;;;;;32.05;40.89;95089.63;4974748;28;20598;-69
2022/07/01 08:52:29;;;;;;;6.97;5.43;;;;;;;32.27;40.47;95098.41;4973069;28;20234;-69
2022/07/01 08:54:56;;;;;;;27.50;21.42;;;;;;;32.30;40.98;95098.88;4976484;28;20250;-69
2022/07/01 08:57:23;;;;;;;35.85;27.35;;;;;;;32.52;40.06;95094.47;4973207;28;20779;-70
2022/07/01 09:00:03;;;;;;;67.20;50.10;;;;;;;32.59;39.34;95089.28;4974264;28;20868;-69
2022/07/01 09:02:50;;;;;;;16.33;10.85;;;;;;;32.40;39.79;95093.34;4973902;28;20291;-69
2022/07/01 09:05:17;;;;;;;40.28;25.75;;;;;;;32.50;39.39;95093.03;4975700;28;20298;-69
2022/07/01 09:07:44;;;;;;;7.68;6.30;;;;;;;32.41;38.32;95093.16;4974390;28;20212;-69
2022/07/01 09:10:14;;;;;;;13.82;10.90;;;;;;;32.14;39.63;95093.78;4974828;28;20250;-68
2022/07/01 09:12:41;;;;;;;13.55;10.02;;;;;;;32.03;39.88;95097.69;4974083;28;20270;-68
2022/07/01 09:15:25;;;;;;;18.90;16.27;;;;;;;31.93;39.69;95093.69;4971516;28;20326;-68
2022/07/01 09:17:54;;;;;;;7.97;5.72;;;;;;;32.01;40.05;95089.16;4974534;28;20597;-68
2022/07/01 09:20:30;;;;;;;5.32;4.72;;;;;;;31.75;40.09;95094.88;4974018;28;20211;-69
2022/07/01 09:23:05;;;;;;;9.27;6.45;;;;;;;31.89;39.81;95089.81;4974673;28;20716;-71
2022/07/01 09:25:34;;;;;;;10.77;9.65;;;;;;;31.99;39.07;95079.81;4973313;28;20204;-69
2022/07/01 09:28:06;;;;;;;7.75;7.10;;;;;;;32.15;39.28;95090.16;4973366;28;20203;-69
2022/07/01 09:30:33;;;;;;;20.65;11.75;;;;;;;32.31;38.65;95084.72;4974527;28;20287;-70
2022/07/01 09:33:13;;;;;;;30.25;20.65;;;;;;;32.49;38.38;95081.69;4979680;28;20224;-71
2022/07/01 09:35:40;;;;;;;23.02;15.27;;;;;;;32.61;37.83;95074.94;4972512;28;20215;-71
2022/07/01 09:38:11;;;;;;;11.48;8.18;;;;;;;32.62;36.90;95075.78;4973398;28;20306;-70
2022/07/01 09:40:52;;;;;;;12.45;6.47;;;;;;;32.38;36.39;95077.75;4973792;28;20286;-70
2022/07/01 09:43:21;;;;;;;7.75;7.22;;;;;;;32.52;36.95;95069.97;4973733;28;20192;-69
2022/07/01 09:45:59;;;;;;;11.05;5.80;;;;;;;32.66;36.75;95069.13;4972876;28;20265;-69
2022/07/01 09:48:42;;;;;;;8.88;5.22;;;;;;;32.67;36.41;95073.38;4972780;28;20215;-69
2022/07/01 09:51:10;;;;;;;6.57;5.45;;;;;;;32.72;35.83;95071.00;4974661;28;20230;-68
2022/07/01 09:53:37;;;;;;;13.70;7.47;;;;;;;32.69;36.27;95064.28;4973003;28;20219;-69
2022/07/01 09:56:04;;;;;;;9.45;6.05;;;;;;;32.88;36.99;95062.91;4970719;28;20199;-69
2022/07/01 09:58:32;;;;;;;10.55;5.72;;;;;;;32.85;35.86;95052.75;4972421;28;20208;-69
2022/07/01 10:00:59;;;;;;;7.60;4.88;;;;;;;32.74;34.77;95055.88;4975083;28;20208;-69
2022/07/01 10:03:28;;;;;;;6.05;5.32;;;;;;;32.77;34.93;95058.13;4973654;28;20201;-70
2022/07/01 10:05:58;;;;;;;7.93;5.95;;;;;;;32.90;34.99;95046.91;4977126;28;20228;-69
2022/07/01 10:08:47;;;;;;;7.60;5.82;;;;;;;32.99;34.59;95046.59;4977099;28;20347;-67
2022/07/01 10:11:37;;;;;;;5.47;5.00;;;;;;;33.05;32.35;95059.00;4976313;28;20278;-68
2022/07/01 10:14:06;;;;;;;8.68;5.88;;;;;;;33.13;31.59;95058.88;4976385;28;20679;-69
2022/07/01 10:16:34;;;;;;;5.70;5.28;;;;;;;33.25;32.55;95046.00;4976347;28;20208;-69
2022/07/01 10:19:25;;;;;;;6.57;4.70;;;;;;;33.21;31.56;95043.91;4976488;28;20204;-69
2022/07/01 10:21:55;;;;;;;6.28;4.55;;;;;;;33.05;32.13;95040.56;4978386;28;20246;-69
2022/07/01 10:24:22;;;;;;;6.18;4.68;;;;;;;33.11;31.55;95042.44;4976213;28;20208;-69
2022/07/01 10:26:49;;;;;;;5.80;4.00;;;;;;;33.22;31.34;95032.38;4977802;28;20702;-68
2022/07/01 10:29:29;;;;;;;5.00;4.57;;;;;;;33.00;28.95;95042.94;4977178;28;20208;-71
2022/07/01 10:32:03;;;;;;;4.88;4.57;;;;;;;32.65;30.37;95028.03;4980168;28;20223;-70
2022/07/01 10:34:40;;;;;;;5.00;4.53;;;;;;;32.79;30.00;95029.81;4978186;28;20671;-69
2022/07/01 10:37:09;;;;;;;7.00;4.80;;;;;;;32.96;30.14;95028.53;4976623;28;20211;-71
2022/07/01 10:39:58;;;;;;;6.90;4.50;;;;;;;33.27;29.75;95025.56;4978017;28;20212;-70
2022/07/01 10:42:36;;;;;;;5.85;4.50;;;;;;;33.30;29.41;95012.03;4972136;28;20204;-70
2022/07/01 10:45:08;;;;;;;5.13;4.80;;;;;;;33.51;29.15;95008.50;4976537;28;20282;-70
2022/07/01 10:47:36;;;;;;;4.45;4.15;;;;;;;33.62;29.99;95009.78;4976450;28;20200;-69
2022/07/01 10:50:09;;;;;;;4.65;4.20;;;;;;;33.40;29.06;95003.78;4975084;28;20262;-69
2022/07/01 10:52:36;;;;;;;5.13;4.55;;;;;;;32.70;28.63;95005.38;4976626;28;20239;-70
2022/07/01 10:55:06;;;;;;;4.85;4.55;;;;;;;32.67;29.97;94999.69;4977758;28;20207;-69
2022/07/01 10:57:43;;;;;;;4.85;4.28;;;;;;;32.89;27.91;95006.63;4976499;28;20215;-70
2022/07/01 11:00:34;;;;;;;4.68;4.40;;;;;;;32.68;27.52;95009.22;4978538;28;20313;-70
2022/07/01 11:03:19;;;;;;;5.28;3.90;;;;;;;32.67;28.32;95007.56;4977903;28;20261;-70
2022/07/01 11:05:50;;;;;;;6.60;4.20;;;;;;;32.70;27.33;95018.53;4975046;28;20801;-69
2022/07/01 11:08:17;;;;;;;4.80;4.40;;;;;;;32.58;27.04;95011.34;4976497;28;20216;-70
2022/07/01 11:10:44;;;;;;;6.18;3.90;;;;;;;32.66;27.53;95000.72;4977322;28;20204;-68
2022/07/01 11:13:15;;;;;;;6.45;4.60;;;;;;;32.70;26.55;95000.13;4976115;28;20232;-68
2022/07/01 11:15:43;;;;;;;7.68;4.68;;;;;;;32.59;27.17;95003.28;4974026;28;20223;-68
2022/07/01 11:18:10;;;;;;;4.90;4.45;;;;;;;32.76;27.41;95002.03;4975517;28;20215;-69
2022/07/01 11:20:37;;;;;;;6.45;4.82;;;;;;;32.55;27.39;95001.19;4976151;28;21771;-69
2022/07/01 11:23:05;;;;;;;5.30;4.72;;;;;;;32.57;27.46;95005.28;4976962;28;20200;-68
2022/07/01 11:25:32;;;;;;;8.25;4.60;;;;;;;32.91;27.28;94996.72;4976439;28;20214;-69
2022/07/01 11:27:59;;;;;;;5.28;3.97;;;;;;;32.87;27.00;94990.19;4974710;28;20200;-70
2022/07/01 11:30:26;;;;;;;4.53;4.22;;;;;;;33.08;27.48;94987.53;4975266;28;20618;-68
2022/07/01 11:32:56;;;;;;;4.85;4.57;;;;;;;33.04;28.14;94991.53;4974926;28;20235;-70
2022/07/01 11:41:00;;;;;;;8.05;4.32;;;;;;;32.55;27.16;94990.69;4975922;28;20215;-69
2022/07/01 11:43:29;;;;;;;5.57;4.97;;;;;;;32.58;27.78;94985.06;4976233;28;20811;-70
2022/07/01 11:45:59;;;;;;;5.43;3.58;;;;;;;32.72;27.66;94984.16;4975622;28;20212;-69
2022/07/01 11:48:38;;;;;;;4.43;4.10;;;;;;;33.04;27.07;94981.00;4976332;28;20366;-69
2022/07/01 11:51:13;;;;;;;4.53;4.20;;;;;;;33.23;26.62;94974.25;4978035;28;20257;-69
2022/07/01 11:53:44;;;;;;;14.73;4.40;;;;;;;33.28;26.42;94966.63;4975327;28;20227;-69
2022/07/01 11:56:12;;;;;;;3.90;3.70;;;;;;;32.73;27.21;94973.44;4976402;28;20200;-70
2022/07/01 11:58:43;;;;;;;6.35;4.05;;;;;;;32.77;26.56;94963.38;4973866;28;20294;-69